sensor_id;sensor_type;location;lat;lon;timestamp;temperature;humidity
40253;DHT22;25972;51.854;4.534;2022-12-18T00:01:17;-2.90;99.90
40253;DHT22;25972;51.854;4.534;2022-12-18T00:03:44;-2.50;99.90
40253;DHT22;25972;51.854;4.534;2022-12-18T00:06:10;-2.90;99.90
40253;DHT22;25972;51.854;4.534;2022-12-18T00:08:37;-2.80;99.90
40253;DHT22;25972;51.854;4.534;2022-12-18T00:11:04;-2.60;99.90
40253;DHT22;25972;51.854;4.534;2022-12-18T00:13:30;-2.80;99.90
40253;DHT22;25972;51.854;4.534;2022-12-18T00:16:05;-2.50;99.90
40253;DHT22;25972;51.854;4.534;2022-12-18T00:18:32;-3.00;99.90
40253;DHT22;25972;51.854;4.534;2022-12-18T00:21:00;-2.80;99.90
40253;DHT22;25972;51.854;4.534;2022-12-18T00:23:27;-2.80;99.90
40253;DHT22;25972;51.854;4.534;2022-12-18T00:25:53;-2.80;99.90
40253;DHT22;25972;51.854;4.534;2022-12-18T00:28:19;-2.90;99.90
40253;DHT22;25972;51.854;4.534;2022-12-18T00:30:46;-2.90;99.90
40253;DHT22;25972;51.854;4.534;2022-12-18T00:33:12;-2.80;99.90
40253;DHT22;25972;51.854;4.534;2022-12-18T00:35:38;-3.10;99.90
40253;DHT22;25972;51.854;4.534;2022-12-18T00:38:04;-3.00;99.90
40253;DHT22;25972;51.854;4.534;2022-12-18T00:40:31;-3.20;99.90
40253;DHT22;25972;51.854;4.534;2022-12-18T00:42:57;-3.30;99.90
40253;DHT22;25972;51.854;4.534;2022-12-18T00:45:29;-3.20;99.90
40253;DHT22;25972;51.854;4.534;2022-12-18T00:47:56;-3.20;99.90
40253;DHT22;25972;51.854;4.534;2022-12-18T00:50:23;-3.40;99.90
40253;DHT22;25972;51.854;4.534;2022-12-18T00:52:50;-3.40;99.90
40253;DHT22;25972;51.854;4.534;2022-12-18T00:55:16;-3.20;99.90
40253;DHT22;25972;51.854;4.534;2022-12-18T00:57:42;-3.10;99.90
40253;DHT22;25972;51.854;4.534;2022-12-18T01:00:11;-3.20;99.90
40253;DHT22;25972;51.854;4.534;2022-12-18T01:02:38;-3.40;99.90
40253;DHT22;25972;51.854;4.534;2022-12-18T01:05:06;-3.20;99.90
40253;DHT22;25972;51.854;4.534;2022-12-18T01:07:32;-3.20;99.90
40253;DHT22;25972;51.854;4.534;2022-12-18T01:09:58;-3.40;99.90
40253;DHT22;25972;51.854;4.534;2022-12-18T01:12:25;-3.10;99.90
40253;DHT22;25972;51.854;4.534;2022-12-18T01:14:51;-3.20;99.90
40253;DHT22;25972;51.854;4.534;2022-12-18T01:17:17;-3.20;99.90
40253;DHT22;25972;51.854;4.534;2022-12-18T01:19:43;-3.50;99.90
40253;DHT22;25972;51.854;4.534;2022-12-18T01:22:09;-3.30;99.90
40253;DHT22;25972;51.854;4.534;2022-12-18T01:24:35;-3.40;99.90
40253;DHT22;25972;51.854;4.534;2022-12-18T01:27:01;-2.90;99.90
40253;DHT22;25972;51.854;4.534;2022-12-18T01:29:27;-3.30;99.90
40253;DHT22;25972;51.854;4.534;2022-12-18T01:31:55;-3.40;99.90
40253;DHT22;25972;51.854;4.534;2022-12-18T01:34:22;-2.90;99.90
40253;DHT22;25972;51.854;4.534;2022-12-18T01:36:51;-3.00;99.90
40253;DHT22;25972;51.854;4.534;2022-12-18T01:39:18;-3.00;99.90
40253;DHT22;25972;51.854;4.534;2022-12-18T01:41:44;-3.00;99.90
40253;DHT22;25972;51.854;4.534;2022-12-18T01:49:53;-3.20;99.90
40253;DHT22;25972;51.854;4.534;2022-12-18T01:52:20;-3.10;99.90
40253;DHT22;25972;51.854;4.534;2022-12-18T01:54:48;-3.30;99.90
40253;DHT22;25972;51.854;4.534;2022-12-18T01:57:15;-3.20;99.90
40253;DHT22;25972;51.854;4.534;2022-12-18T01:59:43;-3.60;99.90
40253;DHT22;25972;51.854;4.534;2022-12-18T02:02:11;-3.40;99.90
40253;DHT22;25972;51.854;4.534;2022-12-18T02:04:37;-3.40;99.90
40253;DHT22;25972;51.854;4.534;2022-12-18T02:07:40;-3.80;99.90
40253;DHT22;25972;51.854;4.534;2022-12-18T02:10:18;-3.80;99.90
40253;DHT22;25972;51.854;4.534;2022-12-18T02:15:49;-3.90;99.90
40253;DHT22;25972;51.854;4.534;2022-12-18T02:18:27;-3.80;99.90
40253;DHT22;25972;51.854;4.534;2022-12-18T02:29:08;-3.90;99.90
40253;DHT22;25972;51.854;4.534;2022-12-18T02:31:40;-3.80;99.90
40253;DHT22;25972;51.854;4.534;2022-12-18T02:34:09;-4.10;99.90
40253;DHT22;25972;51.854;4.534;2022-12-18T02:36:39;-4.10;99.90
40253;DHT22;25972;51.854;4.534;2022-12-18T02:39:09;-3.80;99.90
40253;DHT22;25972;51.854;4.534;2022-12-18T02:41:36;-3.90;99.90
40253;DHT22;25972;51.854;4.534;2022-12-18T02:44:08;-3.90;99.90
40253;DHT22;25972;51.854;4.534;2022-12-18T02:52:24;-4.30;99.90
40253;DHT22;25972;51.854;4.534;2022-12-18T02:57:54;-3.90;99.90
40253;DHT22;25972;51.854;4.534;2022-12-18T03:00:41;-4.00;99.90
40253;DHT22;25972;51.854;4.534;2022-12-18T03:05:50;-4.40;99.90
40253;DHT22;25972;51.854;4.534;2022-12-18T03:08:24;-4.00;99.90
40253;DHT22;25972;51.854;4.534;2022-12-18T03:11:13;-4.30;99.90
40253;DHT22;25972;51.854;4.534;2022-12-18T03:13:52;-4.00;99.90
40253;DHT22;25972;51.854;4.534;2022-12-18T03:16:27;-4.40;99.90
40253;DHT22;25972;51.854;4.534;2022-12-18T03:19:00;-4.30;99.90
40253;DHT22;25972;51.854;4.534;2022-12-18T03:21:35;-4.30;99.90
40253;DHT22;25972;51.854;4.534;2022-12-18T03:24:06;-4.40;99.90
40253;DHT22;25972;51.854;4.534;2022-12-18T03:26:35;-4.00;99.90
40253;DHT22;25972;51.854;4.534;2022-12-18T03:29:07;-4.30;99.90
40253;DHT22;25972;51.854;4.534;2022-12-18T03:31:37;-4.40;99.90
40253;DHT22;25972;51.854;4.534;2022-12-18T03:34:09;-4.50;99.90
40253;DHT22;25972;51.854;4.534;2022-12-18T03:36:42;-4.10;99.90
40253;DHT22;25972;51.854;4.534;2022-12-18T03:39:08;-4.10;99.90
40253;DHT22;25972;51.854;4.534;2022-12-18T03:47:43;-4.60;99.90
40253;DHT22;25972;51.854;4.534;2022-12-18T03:50:21;-4.50;99.90
40253;DHT22;25972;51.854;4.534;2022-12-18T03:55:34;-4.40;99.90
40253;DHT22;25972;51.854;4.534;2022-12-18T03:58:04;-4.30;99.90
40253;DHT22;25972;51.854;4.534;2022-12-18T04:00:42;-4.20;99.90
40253;DHT22;25972;51.854;4.534;2022-12-18T04:03:10;-4.50;99.90
40253;DHT22;25972;51.854;4.534;2022-12-18T04:05:46;-4.30;99.90
40253;DHT22;25972;51.854;4.534;2022-12-18T04:08:14;-4.60;99.90
40253;DHT22;25972;51.854;4.534;2022-12-18T04:10:43;-4.30;99.90
40253;DHT22;25972;51.854;4.534;2022-12-18T04:13:09;-4.40;99.90
40253;DHT22;25972;51.854;4.534;2022-12-18T04:15:36;-4.30;99.90
40253;DHT22;25972;51.854;4.534;2022-12-18T04:18:04;-4.40;99.90
40253;DHT22;25972;51.854;4.534;2022-12-18T04:20:37;-4.50;99.90
40253;DHT22;25972;51.854;4.534;2022-12-18T04:23:03;-4.40;99.90
40253;DHT22;25972;51.854;4.534;2022-12-18T04:25:29;-4.70;99.90
40253;DHT22;25972;51.854;4.534;2022-12-18T04:28:05;-4.70;99.90
40253;DHT22;25972;51.854;4.534;2022-12-18T04:30:33;-4.40;99.90
40253;DHT22;25972;51.854;4.534;2022-12-18T04:32:59;-4.70;99.90
40253;DHT22;25972;51.854;4.534;2022-12-18T04:35:26;-4.60;99.90
40253;DHT22;25972;51.854;4.534;2022-12-18T04:37:52;-4.50;99.90
40253;DHT22;25972;51.854;4.534;2022-12-18T04:40:18;-4.50;99.90
40253;DHT22;25972;51.854;4.534;2022-12-18T04:42:46;-4.50;99.90
40253;DHT22;25972;51.854;4.534;2022-12-18T04:45:12;-4.60;99.90
40253;DHT22;25972;51.854;4.534;2022-12-18T04:47:38;-4.50;99.90
40253;DHT22;25972;51.854;4.534;2022-12-18T04:50:04;-4.60;99.90
40253;DHT22;25972;51.854;4.534;2022-12-18T04:52:30;-4.50;99.90
40253;DHT22;25972;51.854;4.534;2022-12-18T04:54:56;-4.80;99.90
40253;DHT22;25972;51.854;4.534;2022-12-18T04:57:22;-4.90;99.90
40253;DHT22;25972;51.854;4.534;2022-12-18T04:59:50;-4.90;99.90
40253;DHT22;25972;51.854;4.534;2022-12-18T05:02:16;-4.50;99.90
40253;DHT22;25972;51.854;4.534;2022-12-18T05:04:42;-4.60;99.90
40253;DHT22;25972;51.854;4.534;2022-12-18T05:07:08;-4.70;99.90
40253;DHT22;25972;51.854;4.534;2022-12-18T05:09:34;-4.70;99.90
40253;DHT22;25972;51.854;4.534;2022-12-18T05:12:00;-4.60;99.90
40253;DHT22;25972;51.854;4.534;2022-12-18T05:14:26;-4.90;99.90
40253;DHT22;25972;51.854;4.534;2022-12-18T05:16:54;-4.90;99.90
40253;DHT22;25972;51.854;4.534;2022-12-18T05:19:21;-4.90;99.90
40253;DHT22;25972;51.854;4.534;2022-12-18T05:21:47;-4.90;99.90
40253;DHT22;25972;51.854;4.534;2022-12-18T05:24:12;-4.70;99.90
40253;DHT22;25972;51.854;4.534;2022-12-18T05:26:38;-4.70;99.90
40253;DHT22;25972;51.854;4.534;2022-12-18T05:29:04;-4.80;99.90
40253;DHT22;25972;51.854;4.534;2022-12-18T05:31:30;-4.90;99.90
40253;DHT22;25972;51.854;4.534;2022-12-18T05:33:57;-4.70;99.90
40253;DHT22;25972;51.854;4.534;2022-12-18T05:36:23;-5.00;99.90
40253;DHT22;25972;51.854;4.534;2022-12-18T05:38:49;-5.10;99.90
40253;DHT22;25972;51.854;4.534;2022-12-18T05:41:15;-5.10;99.90
40253;DHT22;25972;51.854;4.534;2022-12-18T05:43:41;-5.00;99.90
40253;DHT22;25972;51.854;4.534;2022-12-18T05:46:12;-5.00;99.90
40253;DHT22;25972;51.854;4.534;2022-12-18T05:48:38;-5.00;99.90
40253;DHT22;25972;51.854;4.534;2022-12-18T05:51:07;-4.80;99.90
40253;DHT22;25972;51.854;4.534;2022-12-18T05:53:34;-4.80;99.90
40253;DHT22;25972;51.854;4.534;2022-12-18T05:56:02;-4.90;99.90
40253;DHT22;25972;51.854;4.534;2022-12-18T05:58:29;-5.00;99.90
40253;DHT22;25972;51.854;4.534;2022-12-18T06:00:56;-5.00;99.90
40253;DHT22;25972;51.854;4.534;2022-12-18T06:03:22;-4.70;99.90
40253;DHT22;25972;51.854;4.534;2022-12-18T06:05:48;-4.90;99.90
40253;DHT22;25972;51.854;4.534;2022-12-18T06:08:14;-5.10;99.90
40253;DHT22;25972;51.854;4.534;2022-12-18T06:10:41;-5.10;99.90
40253;DHT22;25972;51.854;4.534;2022-12-18T06:13:07;-5.00;99.90
40253;DHT22;25972;51.854;4.534;2022-12-18T06:15:36;-4.90;99.90
40253;DHT22;25972;51.854;4.534;2022-12-18T06:18:02;-4.80;99.90
40253;DHT22;25972;51.854;4.534;2022-12-18T06:20:28;-5.10;99.90
40253;DHT22;25972;51.854;4.534;2022-12-18T06:22:54;-5.00;99.90
40253;DHT22;25972;51.854;4.534;2022-12-18T06:25:20;-4.90;99.90
40253;DHT22;25972;51.854;4.534;2022-12-18T06:27:47;-5.10;99.90
40253;DHT22;25972;51.854;4.534;2022-12-18T06:30:13;-5.00;99.90
40253;DHT22;25972;51.854;4.534;2022-12-18T06:32:39;-5.10;99.90
40253;DHT22;25972;51.854;4.534;2022-12-18T06:35:05;-4.90;99.90
40253;DHT22;25972;51.854;4.534;2022-12-18T06:37:31;-5.10;99.90
40253;DHT22;25972;51.854;4.534;2022-12-18T06:39:57;-5.10;99.90
40253;DHT22;25972;51.854;4.534;2022-12-18T06:42:24;-5.10;99.90
40253;DHT22;25972;51.854;4.534;2022-12-18T06:44:50;-5.00;99.90
40253;DHT22;25972;51.854;4.534;2022-12-18T06:47:16;-4.90;99.90
40253;DHT22;25972;51.854;4.534;2022-12-18T06:49:42;-5.10;99.90
40253;DHT22;25972;51.854;4.534;2022-12-18T06:52:08;-4.90;99.90
40253;DHT22;25972;51.854;4.534;2022-12-18T06:54:34;-5.00;99.90
40253;DHT22;25972;51.854;4.534;2022-12-18T06:57:00;-5.20;99.90
40253;DHT22;25972;51.854;4.534;2022-12-18T06:59:26;-5.20;99.90
40253;DHT22;25972;51.854;4.534;2022-12-18T07:01:52;-5.00;99.90
40253;DHT22;25972;51.854;4.534;2022-12-18T07:04:18;-5.00;99.90
40253;DHT22;25972;51.854;4.534;2022-12-18T07:06:44;-5.00;99.90
40253;DHT22;25972;51.854;4.534;2022-12-18T07:09:09;-5.00;99.90
40253;DHT22;25972;51.854;4.534;2022-12-18T07:11:35;-5.00;99.90
40253;DHT22;25972;51.854;4.534;2022-12-18T07:14:01;-5.20;99.90
40253;DHT22;25972;51.854;4.534;2022-12-18T07:16:27;-5.20;99.90
40253;DHT22;25972;51.854;4.534;2022-12-18T07:18:56;-5.00;99.90
40253;DHT22;25972;51.854;4.534;2022-12-18T07:21:23;-5.20;99.90
40253;DHT22;25972;51.854;4.534;2022-12-18T07:23:50;-5.10;99.90
40253;DHT22;25972;51.854;4.534;2022-12-18T07:26:19;-5.20;99.90
40253;DHT22;25972;51.854;4.534;2022-12-18T07:28:46;-5.10;99.90
40253;DHT22;25972;51.854;4.534;2022-12-18T07:31:15;-5.10;99.90
40253;DHT22;25972;51.854;4.534;2022-12-18T07:33:42;-5.20;99.90
40253;DHT22;25972;51.854;4.534;2022-12-18T07:36:09;-5.20;99.90
40253;DHT22;25972;51.854;4.534;2022-12-18T07:38:37;-5.20;99.90
40253;DHT22;25972;51.854;4.534;2022-12-18T07:41:05;-5.20;99.90
40253;DHT22;25972;51.854;4.534;2022-12-18T07:43:31;-5.10;99.90
40253;DHT22;25972;51.854;4.534;2022-12-18T07:45:57;-5.20;99.90
40253;DHT22;25972;51.854;4.534;2022-12-18T07:48:23;-5.10;99.90
40253;DHT22;25972;51.854;4.534;2022-12-18T07:50:49;-5.20;99.90
40253;DHT22;25972;51.854;4.534;2022-12-18T07:53:15;-5.00;99.90
40253;DHT22;25972;51.854;4.534;2022-12-18T07:55:42;-5.00;99.90
40253;DHT22;25972;51.854;4.534;2022-12-18T07:58:08;-5.00;99.90
40253;DHT22;25972;51.854;4.534;2022-12-18T08:00:34;-5.00;99.90
40253;DHT22;25972;51.854;4.534;2022-12-18T08:03:01;-5.00;99.90
40253;DHT22;25972;51.854;4.534;2022-12-18T08:05:27;-5.00;99.90
40253;DHT22;25972;51.854;4.534;2022-12-18T08:07:54;-5.10;99.90
40253;DHT22;25972;51.854;4.534;2022-12-18T08:10:20;-5.10;99.90
40253;DHT22;25972;51.854;4.534;2022-12-18T08:12:49;-4.90;99.90
40253;DHT22;25972;51.854;4.534;2022-12-18T08:15:16;-4.90;99.90
40253;DHT22;25972;51.854;4.534;2022-12-18T08:17:42;-5.00;99.90
40253;DHT22;25972;51.854;4.534;2022-12-18T08:20:08;-5.00;99.90
40253;DHT22;25972;51.854;4.534;2022-12-18T08:22:37;-4.80;99.90
40253;DHT22;25972;51.854;4.534;2022-12-18T08:25:05;-4.80;99.90
40253;DHT22;25972;51.854;4.534;2022-12-18T08:27:31;-4.80;99.90
40253;DHT22;25972;51.854;4.534;2022-12-18T08:29:57;-4.90;99.90
40253;DHT22;25972;51.854;4.534;2022-12-18T08:32:24;-4.90;99.90
40253;DHT22;25972;51.854;4.534;2022-12-18T08:34:50;-4.80;99.90
40253;DHT22;25972;51.854;4.534;2022-12-18T08:37:16;-4.70;99.90
40253;DHT22;25972;51.854;4.534;2022-12-18T08:39:42;-4.70;99.90
40253;DHT22;25972;51.854;4.534;2022-12-18T08:42:08;-4.70;99.90
40253;DHT22;25972;51.854;4.534;2022-12-18T08:44:52;-4.60;99.90
40253;DHT22;25972;51.854;4.534;2022-12-18T08:47:18;-4.50;99.90
40253;DHT22;25972;51.854;4.534;2022-12-18T08:49:44;-4.50;99.90
40253;DHT22;25972;51.854;4.534;2022-12-18T08:52:10;-4.50;99.90
40253;DHT22;25972;51.854;4.534;2022-12-18T08:54:36;-4.60;99.90
40253;DHT22;25972;51.854;4.534;2022-12-18T08:57:02;-4.40;99.90
40253;DHT22;25972;51.854;4.534;2022-12-18T08:59:28;-4.40;99.90
40253;DHT22;25972;51.854;4.534;2022-12-18T09:01:54;-4.50;99.90
40253;DHT22;25972;51.854;4.534;2022-12-18T09:04:21;-4.40;99.90
40253;DHT22;25972;51.854;4.534;2022-12-18T09:06:46;-4.40;99.90
40253;DHT22;25972;51.854;4.534;2022-12-18T09:09:14;-4.20;99.90
40253;DHT22;25972;51.854;4.534;2022-12-18T09:11:39;-4.20;99.90
40253;DHT22;25972;51.854;4.534;2022-12-18T09:14:06;-4.10;99.90
40253;DHT22;25972;51.854;4.534;2022-12-18T09:16:32;-4.10;99.90
40253;DHT22;25972;51.854;4.534;2022-12-18T09:19:01;-4.10;99.90
40253;DHT22;25972;51.854;4.534;2022-12-18T09:21:30;-3.90;99.90
40253;DHT22;25972;51.854;4.534;2022-12-18T09:23:56;-4.00;99.90
40253;DHT22;25972;51.854;4.534;2022-12-18T09:26:24;-3.80;99.90
40253;DHT22;25972;51.854;4.534;2022-12-18T09:28:50;-3.90;99.90
40253;DHT22;25972;51.854;4.534;2022-12-18T09:31:20;-3.80;99.90
40253;DHT22;25972;51.854;4.534;2022-12-18T09:33:46;-3.70;99.90
40253;DHT22;25972;51.854;4.534;2022-12-18T09:36:14;-3.80;99.90
40253;DHT22;25972;51.854;4.534;2022-12-18T09:38:40;-3.70;99.90
40253;DHT22;25972;51.854;4.534;2022-12-18T09:44:26;-3.70;99.90
40253;DHT22;25972;51.854;4.534;2022-12-18T09:49:27;-3.50;99.90
40253;DHT22;25972;51.854;4.534;2022-12-18T09:51:59;-3.40;99.90
40253;DHT22;25972;51.854;4.534;2022-12-18T09:54:41;-3.40;99.90
40253;DHT22;25972;51.854;4.534;2022-12-18T09:57:29;-3.40;99.90
40253;DHT22;25972;51.854;4.534;2022-12-18T10:00:23;-3.30;99.90
40253;DHT22;25972;51.854;4.534;2022-12-18T10:02:51;-3.20;99.90
40253;DHT22;25972;51.854;4.534;2022-12-18T10:11:03;-3.10;99.90
40253;DHT22;25972;51.854;4.534;2022-12-18T10:13:49;-3.00;99.90
40253;DHT22;25972;51.854;4.534;2022-12-18T10:16:45;-2.90;99.90
40253;DHT22;25972;51.854;4.534;2022-12-18T10:21:51;-2.90;99.90
40253;DHT22;25972;51.854;4.534;2022-12-18T10:27:27;-2.70;99.90
40253;DHT22;25972;51.854;4.534;2022-12-18T10:29:54;-2.70;99.90
40253;DHT22;25972;51.854;4.534;2022-12-18T10:32:23;-2.80;99.90
40253;DHT22;25972;51.854;4.534;2022-12-18T10:34:52;-2.70;99.90
40253;DHT22;25972;51.854;4.534;2022-12-18T10:37:21;-2.60;99.90
40253;DHT22;25972;51.854;4.534;2022-12-18T10:42:32;-2.50;99.90
40253;DHT22;25972;51.854;4.534;2022-12-18T10:45:11;-2.50;99.90
40253;DHT22;25972;51.854;4.534;2022-12-18T10:47:46;-2.50;99.90
40253;DHT22;25972;51.854;4.534;2022-12-18T10:50:29;-2.40;99.90
40253;DHT22;25972;51.854;4.534;2022-12-18T10:52:57;-2.30;99.90
40253;DHT22;25972;51.854;4.534;2022-12-18T10:55:31;-2.40;99.90
40253;DHT22;25972;51.854;4.534;2022-12-18T10:58:21;-2.40;99.90
40253;DHT22;25972;51.854;4.534;2022-12-18T11:03:43;-2.30;99.90
40253;DHT22;25972;51.854;4.534;2022-12-18T11:08:38;-2.20;99.90
40253;DHT22;25972;51.854;4.534;2022-12-18T11:11:20;-2.20;99.90
40253;DHT22;25972;51.854;4.534;2022-12-18T11:17:03;-2.10;99.90
40253;DHT22;25972;51.854;4.534;2022-12-18T11:19:37;-2.10;99.90
40253;DHT22;25972;51.854;4.534;2022-12-18T11:22:29;-2.10;99.90
40253;DHT22;25972;51.854;4.534;2022-12-18T11:25:01;-2.00;99.90
40253;DHT22;25972;51.854;4.534;2022-12-18T11:27:28;-2.00;99.90
40253;DHT22;25972;51.854;4.534;2022-12-18T11:30:29;-2.00;99.90
40253;DHT22;25972;51.854;4.534;2022-12-18T11:33:09;-1.80;99.90
40253;DHT22;25972;51.854;4.534;2022-12-18T11:35:42;-1.80;99.90
40253;DHT22;25972;51.854;4.534;2022-12-18T11:38:28;-1.90;99.90
40253;DHT22;25972;51.854;4.534;2022-12-18T11:41:14;-1.90;99.90
40253;DHT22;25972;51.854;4.534;2022-12-18T11:44:01;-1.80;99.90
40253;DHT22;25972;51.854;4.534;2022-12-18T11:46:36;-1.70;99.90
40253;DHT22;25972;51.854;4.534;2022-12-18T11:49:12;-1.80;99.90
40253;DHT22;25972;51.854;4.534;2022-12-18T11:52:06;-1.70;99.90
40253;DHT22;25972;51.854;4.534;2022-12-18T11:54:35;-1.70;99.90
40253;DHT22;25972;51.854;4.534;2022-12-18T12:00:13;-1.80;99.90
40253;DHT22;25972;51.854;4.534;2022-12-18T12:03:00;-1.80;99.90
40253;DHT22;25972;51.854;4.534;2022-12-18T12:16:27;-1.80;99.90
40253;DHT22;25972;51.854;4.534;2022-12-18T12:19:07;-1.70;99.90
40253;DHT22;25972;51.854;4.534;2022-12-18T12:21:46;-1.70;99.90
40253;DHT22;25972;51.854;4.534;2022-12-18T12:32:20;-1.70;99.90
40253;DHT22;25972;51.854;4.534;2022-12-18T12:35:25;-1.60;99.90
40253;DHT22;25972;51.854;4.534;2022-12-18T12:40:34;-1.60;99.90
40253;DHT22;25972;51.854;4.534;2022-12-18T12:43:25;-1.60;99.90
40253;DHT22;25972;51.854;4.534;2022-12-18T12:46:06;-1.50;99.90
40253;DHT22;25972;51.854;4.534;2022-12-18T12:51:19;-1.50;99.90
40253;DHT22;25972;51.854;4.534;2022-12-18T12:53:46;-1.50;99.90
40253;DHT22;25972;51.854;4.534;2022-12-18T12:56:15;-1.40;99.90
40253;DHT22;25972;51.854;4.534;2022-12-18T12:58:52;-1.40;99.90
40253;DHT22;25972;51.854;4.534;2022-12-18T13:01:46;-1.50;99.90
40253;DHT22;25972;51.854;4.534;2022-12-18T13:04:21;-1.40;99.90
40253;DHT22;25972;51.854;4.534;2022-12-18T13:07:15;-1.40;99.90
40253;DHT22;25972;51.854;4.534;2022-12-18T13:13:01;-1.30;99.90
40253;DHT22;25972;51.854;4.534;2022-12-18T13:25:51;-1.30;99.90
40253;DHT22;25972;51.854;4.534;2022-12-18T13:30:49;-1.30;99.90
40253;DHT22;25972;51.854;4.534;2022-12-18T13:38:32;-1.30;99.90
40253;DHT22;25972;51.854;4.534;2022-12-18T13:46:47;-1.20;99.90
40253;DHT22;25972;51.854;4.534;2022-12-18T13:51:50;-1.20;99.90
40253;DHT22;25972;51.854;4.534;2022-12-18T13:54:59;-1.20;99.90
40253;DHT22;25972;51.854;4.534;2022-12-18T13:57:36;-1.10;99.90
40253;DHT22;25972;51.854;4.534;2022-12-18T14:02:48;-1.00;99.90
40253;DHT22;25972;51.854;4.534;2022-12-18T14:05:25;-1.00;99.90
40253;DHT22;25972;51.854;4.534;2022-12-18T14:07:52;-1.00;99.90
40253;DHT22;25972;51.854;4.534;2022-12-18T14:10:19;-1.00;99.90
40253;DHT22;25972;51.854;4.534;2022-12-18T14:12:48;-1.00;99.90
40253;DHT22;25972;51.854;4.534;2022-12-18T14:17:54;-0.90;99.90
40253;DHT22;25972;51.854;4.534;2022-12-18T14:20:21;-0.90;99.90
40253;DHT22;25972;51.854;4.534;2022-12-18T14:22:50;-0.90;99.90
40253;DHT22;25972;51.854;4.534;2022-12-18T14:25:19;-0.80;99.90
40253;DHT22;25972;51.854;4.534;2022-12-18T14:30:39;-0.80;99.90
40253;DHT22;25972;51.854;4.534;2022-12-18T14:33:10;-0.80;99.90
40253;DHT22;25972;51.854;4.534;2022-12-18T14:35:39;-0.80;99.90
40253;DHT22;25972;51.854;4.534;2022-12-18T14:41:04;-0.80;99.90
40253;DHT22;25972;51.854;4.534;2022-12-18T14:43:35;-0.80;99.90
40253;DHT22;25972;51.854;4.534;2022-12-18T14:46:02;-0.80;99.90
40253;DHT22;25972;51.854;4.534;2022-12-18T14:48:41;-0.80;99.90
40253;DHT22;25972;51.854;4.534;2022-12-18T14:51:17;-0.80;99.90
40253;DHT22;25972;51.854;4.534;2022-12-18T14:54:05;-0.70;99.90
40253;DHT22;25972;51.854;4.534;2022-12-18T14:56:37;-0.70;99.90
40253;DHT22;25972;51.854;4.534;2022-12-18T15:01:47;-0.70;99.90
40253;DHT22;25972;51.854;4.534;2022-12-18T15:09:38;-0.70;99.90
40253;DHT22;25972;51.854;4.534;2022-12-18T15:12:04;-0.70;99.90
40253;DHT22;25972;51.854;4.534;2022-12-18T15:14:40;-0.70;99.90
40253;DHT22;25972;51.854;4.534;2022-12-18T15:17:18;-0.70;99.90
40253;DHT22;25972;51.854;4.534;2022-12-18T15:19:46;-0.70;99.90
40253;DHT22;25972;51.854;4.534;2022-12-18T15:22:27;-0.70;99.90
40253;DHT22;25972;51.854;4.534;2022-12-18T15:24:55;-0.70;99.90
40253;DHT22;25972;51.854;4.534;2022-12-18T15:32:35;-0.70;99.90
40253;DHT22;25972;51.854;4.534;2022-12-18T15:37:33;-0.70;99.90
40253;DHT22;25972;51.854;4.534;2022-12-18T15:40:00;-0.70;99.90
40253;DHT22;25972;51.854;4.534;2022-12-18T15:42:29;-0.70;99.90
40253;DHT22;25972;51.854;4.534;2022-12-18T15:45:14;-0.70;99.90
40253;DHT22;25972;51.854;4.534;2022-12-18T15:47:40;-0.60;99.90
40253;DHT22;25972;51.854;4.534;2022-12-18T15:50:08;-0.60;99.90
40253;DHT22;25972;51.854;4.534;2022-12-18T15:52:40;-0.60;99.90
40253;DHT22;25972;51.854;4.534;2022-12-18T15:55:12;-0.60;99.90
40253;DHT22;25972;51.854;4.534;2022-12-18T15:57:57;-0.60;99.90
40253;DHT22;25972;51.854;4.534;2022-12-18T16:00:24;-0.60;99.90
40253;DHT22;25972;51.854;4.534;2022-12-18T16:02:50;-0.60;99.90
40253;DHT22;25972;51.854;4.534;2022-12-18T16:05:17;-0.60;99.90
40253;DHT22;25972;51.854;4.534;2022-12-18T16:07:45;-0.60;99.90
40253;DHT22;25972;51.854;4.534;2022-12-18T16:10:11;-0.60;99.90
40253;DHT22;25972;51.854;4.534;2022-12-18T16:12:38;-0.60;99.90
40253;DHT22;25972;51.854;4.534;2022-12-18T16:15:05;-0.70;99.90
40253;DHT22;25972;51.854;4.534;2022-12-18T16:17:31;-0.60;99.90
40253;DHT22;25972;51.854;4.534;2022-12-18T16:19:57;-0.60;99.90
40253;DHT22;25972;51.854;4.534;2022-12-18T16:22:28;-0.60;99.90
40253;DHT22;25972;51.854;4.534;2022-12-18T16:24:55;-0.60;99.90
40253;DHT22;25972;51.854;4.534;2022-12-18T16:27:22;-0.50;99.90
40253;DHT22;25972;51.854;4.534;2022-12-18T16:29:48;-0.50;99.90
40253;DHT22;25972;51.854;4.534;2022-12-18T16:32:19;-0.60;99.90
40253;DHT22;25972;51.854;4.534;2022-12-18T16:34:46;-0.50;99.90
40253;DHT22;25972;51.854;4.534;2022-12-18T16:37:14;-0.50;99.90
40253;DHT22;25972;51.854;4.534;2022-12-18T16:39:41;-0.50;99.90
40253;DHT22;25972;51.854;4.534;2022-12-18T16:42:14;-0.60;99.90
40253;DHT22;25972;51.854;4.534;2022-12-18T16:44:42;-0.50;99.90
40253;DHT22;25972;51.854;4.534;2022-12-18T16:47:08;-0.50;99.90
40253;DHT22;25972;51.854;4.534;2022-12-18T16:49:34;-0.50;99.90
40253;DHT22;25972;51.854;4.534;2022-12-18T16:52:00;-0.50;99.90
40253;DHT22;25972;51.854;4.534;2022-12-18T16:54:26;-0.40;99.90
40253;DHT22;25972;51.854;4.534;2022-12-18T16:56:55;-0.40;99.90
40253;DHT22;25972;51.854;4.534;2022-12-18T16:59:21;-0.40;99.90
40253;DHT22;25972;51.854;4.534;2022-12-18T17:01:48;-0.40;99.90
40253;DHT22;25972;51.854;4.534;2022-12-18T17:04:14;-0.40;99.90
40253;DHT22;25972;51.854;4.534;2022-12-18T17:06:42;-0.40;99.90
40253;DHT22;25972;51.854;4.534;2022-12-18T17:09:11;-0.30;99.90
40253;DHT22;25972;51.854;4.534;2022-12-18T17:11:37;-0.30;99.90
40253;DHT22;25972;51.854;4.534;2022-12-18T17:14:14;-0.30;99.90
40253;DHT22;25972;51.854;4.534;2022-12-18T17:16:41;-0.30;99.90
40253;DHT22;25972;51.854;4.534;2022-12-18T17:19:08;-0.30;99.90
40253;DHT22;25972;51.854;4.534;2022-12-18T17:21:34;-0.30;99.90
40253;DHT22;25972;51.854;4.534;2022-12-18T17:24:01;-0.20;99.90
40253;DHT22;25972;51.854;4.534;2022-12-18T17:26:28;-0.30;99.90
40253;DHT22;25972;51.854;4.534;2022-12-18T17:28:57;-0.20;99.90
40253;DHT22;25972;51.854;4.534;2022-12-18T17:31:26;-0.20;99.90
40253;DHT22;25972;51.854;4.534;2022-12-18T17:33:52;-0.10;99.90
40253;DHT22;25972;51.854;4.534;2022-12-18T17:36:19;-0.20;99.90
40253;DHT22;25972;51.854;4.534;2022-12-18T17:38:53;-0.10;99.90
40253;DHT22;25972;51.854;4.534;2022-12-18T17:41:20;-0.10;99.90
40253;DHT22;25972;51.854;4.534;2022-12-18T17:43:54;-0.10;99.90
40253;DHT22;25972;51.854;4.534;2022-12-18T17:46:20;-0.10;99.90
40253;DHT22;25972;51.854;4.534;2022-12-18T17:48:46;-0.10;99.90
40253;DHT22;25972;51.854;4.534;2022-12-18T17:51:13;-0.10;99.90
40253;DHT22;25972;51.854;4.534;2022-12-18T17:53:40;-0.10;99.90
40253;DHT22;25972;51.854;4.534;2022-12-18T17:56:11;0.00;99.90
40253;DHT22;25972;51.854;4.534;2022-12-18T17:58:38;0.00;99.90
40253;DHT22;25972;51.854;4.534;2022-12-18T18:01:04;0.00;99.90
40253;DHT22;25972;51.854;4.534;2022-12-18T18:03:31;0.00;99.90
40253;DHT22;25972;51.854;4.534;2022-12-18T18:05:58;0.00;99.90
40253;DHT22;25972;51.854;4.534;2022-12-18T18:08:24;0.00;99.90
40253;DHT22;25972;51.854;4.534;2022-12-18T18:10:51;0.00;99.90
40253;DHT22;25972;51.854;4.534;2022-12-18T18:13:22;0.00;99.90
40253;DHT22;25972;51.854;4.534;2022-12-18T18:16:08;0.10;99.90
40253;DHT22;25972;51.854;4.534;2022-12-18T18:18:34;0.10;99.90